sensor_id;sensor_type;location;lat;lon;timestamp;pressure;altitude;pressure_sealevel;temperature;humidity
21504;BME280;10913;51.992;9.228;2022-11-20T00:00:54;100059.06;;;-3.19;98.71
21504;BME280;10913;51.992;9.228;2022-11-20T00:03:19;100061.59;;;-3.20;98.92
21504;BME280;10913;51.992;9.228;2022-11-20T00:05:45;100059.84;;;-3.21;98.86
21504;BME280;10913;51.992;9.228;2022-11-20T00:08:11;100056.38;;;-3.22;98.54
21504;BME280;10913;51.992;9.228;2022-11-20T00:10:37;100058.00;;;-3.24;98.70
21504;BME280;10913;51.992;9.228;2022-11-20T00:13:03;100059.69;;;-3.24;98.80
21504;BME280;10913;51.992;9.228;2022-11-20T00:15:28;100058.00;;;-3.24;98.70
21504;BME280;10913;51.992;9.228;2022-11-20T00:17:54;100064.81;;;-3.26;98.89
21504;BME280;10913;51.992;9.228;2022-11-20T00:20:19;100065.63;;;-3.27;98.84
21504;BME280;10913;51.992;9.228;2022-11-20T00:22:45;100052.63;;;-3.28;99.27
21504;BME280;10913;51.992;9.228;2022-11-20T00:25:10;100048.22;;;-3.31;99.12
21504;BME280;10913;51.992;9.228;2022-11-20T00:27:36;100053.38;;;-3.31;98.56
21504;BME280;10913;51.992;9.228;2022-11-20T00:30:03;100052.34;;;-3.34;98.68
21504;BME280;10913;51.992;9.228;2022-11-20T00:32:29;100053.09;;;-3.37;98.57
21504;BME280;10913;51.992;9.228;2022-11-20T00:34:56;100059.88;;;-3.39;98.58
21504;BME280;10913;51.992;9.228;2022-11-20T00:37:21;100064.06;;;-3.42;98.69
21504;BME280;10913;51.992;9.228;2022-11-20T00:39:47;100059.34;;;-3.51;99.03
21504;BME280;10913;51.992;9.228;2022-11-20T00:42:12;100060.97;;;-3.53;99.42
21504;BME280;10913;51.992;9.228;2022-11-20T00:44:38;100052.28;;;-3.55;99.78
21504;BME280;10913;51.992;9.228;2022-11-20T00:47:03;100058.25;;;-3.56;99.80
21504;BME280;10913;51.992;9.228;2022-11-20T00:49:28;100053.09;;;-3.56;99.76
21504;BME280;10913;51.992;9.228;2022-11-20T00:51:54;100048.81;;;-3.56;99.57
21504;BME280;10913;51.992;9.228;2022-11-20T00:54:19;100048.72;;;-3.57;99.10
21504;BME280;10913;51.992;9.228;2022-11-20T00:56:45;100043.56;;;-3.57;99.16
21504;BME280;10913;51.992;9.228;2022-11-20T00:59:10;100040.03;;;-3.59;99.33
21504;BME280;10913;51.992;9.228;2022-11-20T01:01:36;100036.53;;;-3.61;99.31
21504;BME280;10913;51.992;9.228;2022-11-20T01:04:02;100042.56;;;-3.61;99.27
21504;BME280;10913;51.992;9.228;2022-11-20T01:06:36;100035.66;;;-3.62;99.27
21504;BME280;10913;51.992;9.228;2022-11-20T01:09:06;100041.56;;;-3.64;99.24
21504;BME280;10913;51.992;9.228;2022-11-20T01:11:34;100034.47;;;-3.68;99.67
21504;BME280;10913;51.992;9.228;2022-11-20T01:14:02;100032.78;;;-3.68;100.00
21504;BME280;10913;51.992;9.228;2022-11-20T01:16:33;100038.00;;;-3.66;100.00
21504;BME280;10913;51.992;9.228;2022-11-20T01:19:03;100037.13;;;-3.67;100.00
21504;BME280;10913;51.992;9.228;2022-11-20T01:21:34;100039.63;;;-3.68;99.93
21504;BME280;10913;51.992;9.228;2022-11-20T01:24:00;100034.47;;;-3.68;99.98
21504;BME280;10913;51.992;9.228;2022-11-20T01:26:29;100035.38;;;-3.68;99.95
21504;BME280;10913;51.992;9.228;2022-11-20T01:28:56;100036.25;;;-3.67;99.72
21504;BME280;10913;51.992;9.228;2022-11-20T01:31:24;100033.66;;;-3.67;99.66
21504;BME280;10913;51.992;9.228;2022-11-20T01:33:51;100033.59;;;-3.69;99.57
21504;BME280;10913;51.992;9.228;2022-11-20T01:36:19;100023.13;;;-3.72;99.31
21504;BME280;10913;51.992;9.228;2022-11-20T01:38:46;100028.22;;;-3.73;99.37
21504;BME280;10913;51.992;9.228;2022-11-20T01:41:13;100018.69;;;-3.74;99.74
21504;BME280;10913;51.992;9.228;2022-11-20T01:43:59;100024.59;;;-3.77;99.88
21504;BME280;10913;51.992;9.228;2022-11-20T01:46:25;100028.00;;;-3.78;100.00
21504;BME280;10913;51.992;9.228;2022-11-20T01:48:57;100020.19;;;-3.79;99.80
21504;BME280;10913;51.992;9.228;2022-11-20T01:53:53;100009.75;;;-3.83;99.87
21504;BME280;10913;51.992;9.228;2022-11-20T01:56:21;100015.78;;;-3.82;99.75
21504;BME280;10913;51.992;9.228;2022-11-20T01:58:52;100024.34;;;-3.83;99.86
21504;BME280;10913;51.992;9.228;2022-11-20T02:01:20;100019.13;;;-3.85;99.66
21504;BME280;10913;51.992;9.228;2022-11-20T02:03:46;100017.28;;;-3.87;99.51
21504;BME280;10913;51.992;9.228;2022-11-20T02:06:59;100009.47;;;-3.89;99.25
21504;BME280;10913;51.992;9.228;2022-11-20T02:09:25;100006.88;;;-3.89;99.53
21504;BME280;10913;51.992;9.228;2022-11-20T02:11:52;99999.00;;;-3.92;99.27
21504;BME280;10913;51.992;9.228;2022-11-20T02:14:17;99999.81;;;-3.93;99.06
21504;BME280;10913;51.992;9.228;2022-11-20T02:16:47;99997.16;;;-3.94;98.95
21504;BME280;10913;51.992;9.228;2022-11-20T02:19:21;99997.97;;;-3.95;99.34
21504;BME280;10913;51.992;9.228;2022-11-20T02:24:29;100006.38;;;-3.99;99.46
21504;BME280;10913;51.992;9.228;2022-11-20T02:26:59;100014.97;;;-4.00;99.58
21504;BME280;10913;51.992;9.228;2022-11-20T02:29:32;100002.88;;;-4.01;99.58
21504;BME280;10913;51.992;9.228;2022-11-20T02:32:00;100002.00;;;-4.02;99.43
21504;BME280;10913;51.992;9.228;2022-11-20T02:34:26;100001.84;;;-4.05;99.46
21504;BME280;10913;51.992;9.228;2022-11-20T02:36:52;99994.91;;;-4.06;99.12
21504;BME280;10913;51.992;9.228;2022-11-20T02:39:19;99992.19;;;-4.09;99.11
21504;BME280;10913;51.992;9.228;2022-11-20T02:41:45;99998.22;;;-4.08;99.29
21504;BME280;10913;51.992;9.228;2022-11-20T02:44:10;99998.91;;;-4.12;99.11
21504;BME280;10913;51.992;9.228;2022-11-20T02:46:36;99985.94;;;-4.14;99.10
21504;BME280;10913;51.992;9.228;2022-11-20T02:49:03;99981.50;;;-4.17;99.17
21504;BME280;10913;51.992;9.228;2022-11-20T02:51:28;99988.34;;;-4.17;99.29
21504;BME280;10913;51.992;9.228;2022-11-20T02:53:54;99989.16;;;-4.18;99.17
21504;BME280;10913;51.992;9.228;2022-11-20T02:56:19;99984.91;;;-4.18;99.51
21504;BME280;10913;51.992;9.228;2022-11-20T02:58:45;99987.41;;;-4.19;99.38
21504;BME280;10913;51.992;9.228;2022-11-20T03:01:10;99986.47;;;-4.21;99.74
21504;BME280;10913;51.992;9.228;2022-11-20T03:03:36;99984.72;;;-4.22;100.00
21504;BME280;10913;51.992;9.228;2022-11-20T03:06:01;99986.41;;;-4.23;99.89
21504;BME280;10913;51.992;9.228;2022-11-20T03:08:26;99985.53;;;-4.23;99.94
21504;BME280;10913;51.992;9.228;2022-11-20T03:10:52;99974.31;;;-4.24;99.78
21504;BME280;10913;51.992;9.228;2022-11-20T03:13:17;99976.81;;;-4.25;99.34
21504;BME280;10913;51.992;9.228;2022-11-20T03:15:43;99974.25;;;-4.25;99.28
21504;BME280;10913;51.992;9.228;2022-11-20T03:18:08;99971.59;;;-4.27;99.35
21504;BME280;10913;51.992;9.228;2022-11-20T03:20:33;99968.13;;;-4.27;99.55
21504;BME280;10913;51.992;9.228;2022-11-20T03:22:59;99963.72;;;-4.30;99.45
21504;BME280;10913;51.992;9.228;2022-11-20T03:25:25;99958.47;;;-4.31;99.57
21504;BME280;10913;51.992;9.228;2022-11-20T03:27:50;99964.31;;;-4.35;99.52
21504;BME280;10913;51.992;9.228;2022-11-20T03:30:15;99970.34;;;-4.35;100.00
21504;BME280;10913;51.992;9.228;2022-11-20T03:32:41;99971.16;;;-4.36;100.00
21504;BME280;10913;51.992;9.228;2022-11-20T03:35:07;99962.53;;;-4.36;100.00
21504;BME280;10913;51.992;9.228;2022-11-20T03:37:32;99962.53;;;-4.36;100.00
21504;BME280;10913;51.992;9.228;2022-11-20T03:39:58;99963.34;;;-4.37;100.00
21504;BME280;10913;51.992;9.228;2022-11-20T03:42:23;99956.41;;;-4.38;100.00
21504;BME280;10913;51.992;9.228;2022-11-20T03:45:07;99957.22;;;-4.39;100.00
21504;BME280;10913;51.992;9.228;2022-11-20T03:47:33;99951.25;;;-4.38;99.96
21504;BME280;10913;51.992;9.228;2022-11-20T03:49:58;99963.41;;;-4.36;99.84
21504;BME280;10913;51.992;9.228;2022-11-20T03:52:23;99951.34;;;-4.37;99.68
21504;BME280;10913;51.992;9.228;2022-11-20T03:54:49;99955.59;;;-4.37;99.47
21504;BME280;10913;51.992;9.228;2022-11-20T03:57:14;99940.91;;;-4.40;99.42
21504;BME280;10913;51.992;9.228;2022-11-20T03:59:39;99941.66;;;-4.42;99.62
21504;BME280;10913;51.992;9.228;2022-11-20T04:02:05;99944.22;;;-4.42;99.64
21504;BME280;10913;51.992;9.228;2022-11-20T04:04:30;99953.56;;;-4.44;99.65
21504;BME280;10913;51.992;9.228;2022-11-20T04:06:56;99950.94;;;-4.46;100.00
21504;BME280;10913;51.992;9.228;2022-11-20T04:09:21;99943.13;;;-4.47;100.00
21504;BME280;10913;51.992;9.228;2022-11-20T04:11:46;99943.13;;;-4.47;100.00
21504;BME280;10913;51.992;9.228;2022-11-20T04:14:15;99952.53;;;-4.48;100.00
21504;BME280;10913;51.992;9.228;2022-11-20T04:16:41;99950.69;;;-4.51;99.93
21504;BME280;10913;51.992;9.228;2022-11-20T04:19:13;99948.13;;;-4.51;99.78
21504;BME280;10913;51.992;9.228;2022-11-20T04:21:39;99946.28;;;-4.53;99.35
21504;BME280;10913;51.992;9.228;2022-11-20T04:24:05;99943.63;;;-4.55;98.52
21504;BME280;10913;51.992;9.228;2022-11-20T04:26:31;99946.94;;;-4.57;98.97
21504;BME280;10913;51.992;9.228;2022-11-20T04:28:57;99939.13;;;-4.59;98.78
21504;BME280;10913;51.992;9.228;2022-11-20T04:31:28;99946.75;;;-4.62;98.82
21504;BME280;10913;51.992;9.228;2022-11-20T04:33:54;99944.09;;;-4.63;99.07
21504;BME280;10913;51.992;9.228;2022-11-20T04:36:22;99942.25;;;-4.66;99.38
21504;BME280;10913;51.992;9.228;2022-11-20T04:38:53;99939.59;;;-4.67;99.68
21504;BME280;10913;51.992;9.228;2022-11-20T04:41:20;99948.13;;;-4.68;99.27
21504;BME280;10913;51.992;9.228;2022-11-20T04:43:50;99951.59;;;-4.68;99.44
21504;BME280;10913;51.992;9.228;2022-11-20T04:46:20;99947.34;;;-4.67;99.42
21504;BME280;10913;51.992;9.228;2022-11-20T04:48:46;99946.38;;;-4.69;99.42
21504;BME280;10913;51.992;9.228;2022-11-20T04:51:12;99945.34;;;-4.73;99.40
21504;BME280;10913;51.992;9.228;2022-11-20T04:53:38;99941.00;;;-4.74;99.38
21504;BME280;10913;51.992;9.228;2022-11-20T04:56:06;99940.91;;;-4.75;99.04
21504;BME280;10913;51.992;9.228;2022-11-20T04:58:32;99928.84;;;-4.76;99.26
21504;BME280;10913;51.992;9.228;2022-11-20T05:01:18;99933.91;;;-4.78;99.41
21504;BME280;10913;51.992;9.228;2022-11-20T05:03:44;99929.56;;;-4.79;99.77
21504;BME280;10913;51.992;9.228;2022-11-20T05:06:15;99933.84;;;-4.79;99.68
21504;BME280;10913;51.992;9.228;2022-11-20T05:08:41;99939.88;;;-4.79;99.86
21504;BME280;10913;51.992;9.228;2022-11-20T05:11:09;99933.00;;;-4.80;100.00
21504;BME280;10913;51.992;9.228;2022-11-20T05:13:35;99931.22;;;-4.81;100.00
21504;BME280;10913;51.992;9.228;2022-11-20T05:16:02;99932.03;;;-4.82;100.00
21504;BME280;10913;51.992;9.228;2022-11-20T05:18:28;99934.63;;;-4.82;100.00
21504;BME280;10913;51.992;9.228;2022-11-20T05:20:57;99926.00;;;-4.82;100.00
21504;BME280;10913;51.992;9.228;2022-11-20T05:23:24;99929.47;;;-4.82;99.68
21504;BME280;10913;51.992;9.228;2022-11-20T05:25:53;99921.66;;;-4.83;99.67
21504;BME280;10913;51.992;9.228;2022-11-20T05:28:19;99925.03;;;-4.84;99.87
21504;BME280;10913;51.992;9.228;2022-11-20T05:30:45;99929.31;;;-4.85;99.72
21504;BME280;10913;51.992;9.228;2022-11-20T05:33:10;99931.00;;;-4.86;99.76
21504;BME280;10913;51.992;9.228;2022-11-20T05:35:35;99933.41;;;-4.89;99.48
21504;BME280;10913;51.992;9.228;2022-11-20T05:38:01;99930.78;;;-4.90;99.64
21504;BME280;10913;51.992;9.228;2022-11-20T05:40:26;99929.97;;;-4.89;99.97
21504;BME280;10913;51.992;9.228;2022-11-20T05:42:51;99934.16;;;-4.91;99.63
21504;BME280;10913;51.992;9.228;2022-11-20T05:45:17;99933.19;;;-4.93;99.37
21504;BME280;10913;51.992;9.228;2022-11-20T05:47:42;99938.25;;;-4.95;99.45
21504;BME280;10913;51.992;9.228;2022-11-20T05:50:07;99936.56;;;-4.94;99.76
21504;BME280;10913;51.992;9.228;2022-11-20T05:52:33;99936.41;;;-4.97;99.79
21504;BME280;10913;51.992;9.228;2022-11-20T05:54:58;99939.88;;;-4.97;99.85
21504;BME280;10913;51.992;9.228;2022-11-20T05:57:23;99945.75;;;-4.99;100.00
21504;BME280;10913;51.992;9.228;2022-11-20T05:59:49;99943.19;;;-4.99;99.82
21504;BME280;10913;51.992;9.228;2022-11-20T06:02:14;99946.66;;;-4.99;99.86
21504;BME280;10913;51.992;9.228;2022-11-20T06:04:40;99945.75;;;-4.99;100.00
21504;BME280;10913;51.992;9.228;2022-11-20T06:07:05;99940.59;;;-4.99;100.00
21504;BME280;10913;51.992;9.228;2022-11-20T06:09:31;99936.34;;;-4.99;99.73
21504;BME280;10913;51.992;9.228;2022-11-20T06:11:57;99940.59;;;-4.99;99.34
21504;BME280;10913;51.992;9.228;2022-11-20T06:14:23;99937.19;;;-5.00;99.36
21504;BME280;10913;51.992;9.228;2022-11-20T06:16:48;99939.69;;;-5.01;99.52
21504;BME280;10913;51.992;9.228;2022-11-20T06:19:13;99934.44;;;-5.03;99.48
21504;BME280;10913;51.992;9.228;2022-11-20T06:21:40;99936.16;;;-5.03;99.75
21504;BME280;10913;51.992;9.228;2022-11-20T06:24:05;99933.56;;;-5.03;99.85
21504;BME280;10913;51.992;9.228;2022-11-20T06:26:31;99933.50;;;-5.05;99.63
21504;BME280;10913;51.992;9.228;2022-11-20T06:28:56;99932.59;;;-5.05;100.00
21504;BME280;10913;51.992;9.228;2022-11-20T06:31:24;99923.13;;;-5.06;100.00
21504;BME280;10913;51.992;9.228;2022-11-20T06:33:50;99931.66;;;-5.07;100.00
21504;BME280;10913;51.992;9.228;2022-11-20T06:36:18;99921.34;;;-5.07;100.00
21504;BME280;10913;51.992;9.228;2022-11-20T06:38:44;99921.34;;;-5.07;100.00
21504;BME280;10913;51.992;9.228;2022-11-20T06:41:15;99919.72;;;-5.05;100.00
21504;BME280;10913;51.992;9.228;2022-11-20T06:43:41;99920.63;;;-5.05;100.00
21504;BME280;10913;51.992;9.228;2022-11-20T06:46:07;99919.72;;;-5.05;100.00
21504;BME280;10913;51.992;9.228;2022-11-20T06:48:33;99918.03;;;-5.05;100.00
21504;BME280;10913;51.992;9.228;2022-11-20T06:50:59;99923.28;;;-5.03;100.00
21504;BME280;10913;51.992;9.228;2022-11-20T06:53:24;99919.06;;;-5.01;100.00
21504;BME280;10913;51.992;9.228;2022-11-20T06:55:51;99917.31;;;-5.02;100.00
21504;BME280;10913;51.992;9.228;2022-11-20T06:58:17;99915.63;;;-5.02;100.00
21504;BME280;10913;51.992;9.228;2022-11-20T07:00:43;99916.50;;;-5.01;100.00
21504;BME280;10913;51.992;9.228;2022-11-20T07:03:11;99907.97;;;-5.00;100.00
21504;BME280;10913;51.992;9.228;2022-11-20T07:05:37;99909.72;;;-4.99;100.00
21504;BME280;10913;51.992;9.228;2022-11-20T07:08:03;99913.16;;;-4.99;99.82
21504;BME280;10913;51.992;9.228;2022-11-20T07:10:30;99915.00;;;-4.96;99.61
21504;BME280;10913;51.992;9.228;2022-11-20T07:12:55;99917.66;;;-4.95;99.35
21504;BME280;10913;51.992;9.228;2022-11-20T07:15:22;99915.16;;;-4.93;99.33
21504;BME280;10913;51.992;9.228;2022-11-20T07:17:48;99919.59;;;-4.91;99.44
21504;BME280;10913;51.992;9.228;2022-11-20T07:20:13;99919.72;;;-4.88;99.62
21504;BME280;10913;51.992;9.228;2022-11-20T07:22:39;99920.03;;;-4.81;99.33
21504;BME280;10913;51.992;9.228;2022-11-20T07:25:05;99921.34;;;-4.72;99.57
21504;BME280;10913;51.992;9.228;2022-11-20T07:27:31;99933.88;;;-4.62;99.22
21504;BME280;10913;51.992;9.228;2022-11-20T07:29:56;99931.13;;;-4.47;99.23
21504;BME280;10913;51.992;9.228;2022-11-20T07:32:22;99932.59;;;-4.15;99.41
21504;BME280;10913;51.992;9.228;2022-11-20T07:34:47;99932.66;;;-3.56;97.77
21504;BME280;10913;51.992;9.228;2022-11-20T07:37:13;99928.81;;;-3.25;95.63
21504;BME280;10913;51.992;9.228;2022-11-20T07:39:39;99935.34;;;-2.92;94.38
21504;BME280;10913;51.992;9.228;2022-11-20T07:42:06;99934.91;;;-2.61;92.49
21504;BME280;10913;51.992;9.228;2022-11-20T07:44:32;99932.22;;;-2.41;90.57
21504;BME280;10913;51.992;9.228;2022-11-20T07:46:57;99933.13;;;-2.39;90.03
21504;BME280;10913;51.992;9.228;2022-11-20T07:49:22;99936.59;;;-2.39;89.77
21504;BME280;10913;51.992;9.228;2022-11-20T07:51:50;99930.31;;;-2.46;89.46
21504;BME280;10913;51.992;9.228;2022-11-20T07:54:16;99934.94;;;-2.59;90.12
21504;BME280;10913;51.992;9.228;2022-11-20T07:56:41;99927.13;;;-2.61;90.95
21504;BME280;10913;51.992;9.228;2022-11-20T07:59:07;99934.41;;;-2.51;91.28
21504;BME280;10913;51.992;9.228;2022-11-20T08:01:32;99938.19;;;-2.42;90.63
21504;BME280;10913;51.992;9.228;2022-11-20T08:03:57;99937.53;;;-2.37;90.91
21504;BME280;10913;51.992;9.228;2022-11-20T08:06:23;99938.22;;;-2.19;90.74
21504;BME280;10913;51.992;9.228;2022-11-20T08:08:50;99938.09;;;-1.99;90.34
21504;BME280;10913;51.992;9.228;2022-11-20T08:11:15;99934.81;;;-1.71;89.96
21504;BME280;10913;51.992;9.228;2022-11-20T08:13:59;99938.94;;;-1.29;88.83
21504;BME280;10913;51.992;9.228;2022-11-20T08:16:37;99933.28;;;-1.17;87.66
21504;BME280;10913;51.992;9.228;2022-11-20T08:19:02;99927.31;;;-0.89;87.30
21504;BME280;10913;51.992;9.228;2022-11-20T08:21:28;99932.06;;;-0.49;85.92
21504;BME280;10913;51.992;9.228;2022-11-20T08:23:53;99925.88;;;-0.26;85.43
21504;BME280;10913;51.992;9.228;2022-11-20T08:26:20;99930.25;;;0.35;84.12
21504;BME280;10913;51.992;9.228;2022-11-20T08:28:52;99919.25;;;1.47;81.71
21504;BME280;10913;51.992;9.228;2022-11-20T08:31:17;99912.31;;;3.19;76.26
21504;BME280;10913;51.992;9.228;2022-11-20T08:33:43;99906.50;;;4.71;70.58
21504;BME280;10913;51.992;9.228;2022-11-20T08:36:08;99898.06;;;6.18;67.02
21504;BME280;10913;51.992;9.228;2022-11-20T08:38:34;99885.13;;;7.55;63.08
21504;BME280;10913;51.992;9.228;2022-11-20T08:41:00;99885.66;;;8.63;59.93
21504;BME280;10913;51.992;9.228;2022-11-20T08:43:45;99877.06;;;9.56;57.50
21504;BME280;10913;51.992;9.228;2022-11-20T08:46:11;99877.00;;;10.42;55.13
21504;BME280;10913;51.992;9.228;2022-11-20T08:48:36;99867.84;;;11.26;53.67
21504;BME280;10913;51.992;9.228;2022-11-20T08:51:02;99860.34;;;12.00;51.70
21504;BME280;10913;51.992;9.228;2022-11-20T08:53:27;99863.13;;;12.38;51.03
21504;BME280;10913;51.992;9.228;2022-11-20T08:55:53;99866.63;;;11.96;51.25
21504;BME280;10913;51.992;9.228;2022-11-20T08:58:18;99864.28;;;12.24;49.95
21504;BME280;10913;51.992;9.228;2022-11-20T09:00:43;99864.41;;;12.59;49.65
21504;BME280;10913;51.992;9.228;2022-11-20T09:03:09;99861.22;;;13.22;49.06
21504;BME280;10913;51.992;9.228;2022-11-20T09:05:34;99864.88;;;13.52;48.56
21504;BME280;10913;51.992;9.228;2022-11-20T09:07:59;99864.34;;;13.73;48.35
21504;BME280;10913;51.992;9.228;2022-11-20T09:10:28;99862.22;;;13.86;47.81
21504;BME280;10913;51.992;9.228;2022-11-20T09:12:53;99857.03;;;13.12;48.64
21504;BME280;10913;51.992;9.228;2022-11-20T09:15:20;99854.81;;;12.94;48.75
21504;BME280;10913;51.992;9.228;2022-11-20T09:17:56;99850.59;;;13.22;48.63
21504;BME280;10913;51.992;9.228;2022-11-20T09:20:22;99854.13;;;13.58;48.19
21504;BME280;10913;51.992;9.228;2022-11-20T09:22:48;99859.69;;;13.48;48.14
21504;BME280;10913;51.992;9.228;2022-11-20T09:25:13;99861.16;;;12.03;49.29
21504;BME280;10913;51.992;9.228;2022-11-20T09:27:38;99868.31;;;10.34;51.90
21504;BME280;10913;51.992;9.228;2022-11-20T09:30:04;99865.41;;;8.76;55.07
21504;BME280;10913;51.992;9.228;2022-11-20T09:32:30;99863.19;;;7.79;57.41
21504;BME280;10913;51.992;9.228;2022-11-20T09:34:55;99863.25;;;7.25;58.54
21504;BME280;10913;51.992;9.228;2022-11-20T09:37:20;99871.94;;;6.65;60.53
21504;BME280;10913;51.992;9.228;2022-11-20T09:39:46;99876.16;;;6.10;61.67
21504;BME280;10913;51.992;9.228;2022-11-20T09:45:37;99863.53;;;4.48;66.50
21504;BME280;10913;51.992;9.228;2022-11-20T09:54:29;99853.16;;;3.20;72.40
21504;BME280;10913;51.992;9.228;2022-11-20T09:57:00;99861.25;;;2.85;74.12
21504;BME280;10913;51.992;9.228;2022-11-20T09:59:42;99866.09;;;2.64;75.04
21504;BME280;10913;51.992;9.228;2022-11-20T10:10:33;99854.38;;;1.95;79.20
21504;BME280;10913;51.992;9.228;2022-11-20T10:15:55;99840.09;;;1.77;81.41
21504;BME280;10913;51.992;9.228;2022-11-20T10:30:09;99839.41;;;2.29;81.40
21504;BME280;10913;51.992;9.228;2022-11-20T10:32:38;99831.22;;;2.56;80.47
21504;BME280;10913;51.992;9.228;2022-11-20T10:37:31;99828.38;;;2.93;79.07
21504;BME280;10913;51.992;9.228;2022-11-20T10:42:44;99812.50;;;3.35;78.28
21504;BME280;10913;51.992;9.228;2022-11-20T10:45:19;99803.78;;;4.03;77.99
21504;BME280;10913;51.992;9.228;2022-11-20T10:47:46;99790.28;;;4.46;76.04
21504;BME280;10913;51.992;9.228;2022-11-20T10:50:18;99793.38;;;4.98;74.75
21504;BME280;10913;51.992;9.228;2022-11-20T10:53:13;99791.09;;;5.53;73.21
21504;BME280;10913;51.992;9.228;2022-11-20T10:58:36;99790.53;;;6.29;72.12
21504;BME280;10913;51.992;9.228;2022-11-20T11:01:13;99780.94;;;6.60;70.64
21504;BME280;10913;51.992;9.228;2022-11-20T11:03:39;99778.34;;;6.87;70.43
21504;BME280;10913;51.992;9.228;2022-11-20T11:06:14;99780.09;;;6.94;68.96
21504;BME280;10913;51.992;9.228;2022-11-20T11:08:42;99782.72;;;6.97;68.76
21504;BME280;10913;51.992;9.228;2022-11-20T11:11:20;99779.22;;;7.13;69.60
21504;BME280;10913;51.992;9.228;2022-11-20T11:13:47;99777.44;;;7.37;69.46
21504;BME280;10913;51.992;9.228;2022-11-20T11:16:20;99774.75;;;7.47;68.46
21504;BME280;10913;51.992;9.228;2022-11-20T11:18:46;99769.53;;;7.23;67.21
21504;BME280;10913;51.992;9.228;2022-11-20T11:21:11;99764.28;;;7.26;68.42
21504;BME280;10913;51.992;9.228;2022-11-20T11:23:41;99767.84;;;7.10;68.66
21504;BME280;10913;51.992;9.228;2022-11-20T11:26:20;99756.47;;;6.96;69.35
21504;BME280;10913;51.992;9.228;2022-11-20T11:29:00;99763.47;;;6.92;69.32
21504;BME280;10913;51.992;9.228;2022-11-20T11:31:27;99756.47;;;6.97;69.30
21504;BME280;10913;51.992;9.228;2022-11-20T11:34:15;99752.97;;;6.98;69.11
21504;BME280;10913;51.992;9.228;2022-11-20T11:36:42;99758.19;;;7.06;69.64
21504;BME280;10913;51.992;9.228;2022-11-20T11:39:15;99751.16;;;7.21;69.17
21504;BME280;10913;51.992;9.228;2022-11-20T11:41:42;99746.78;;;7.37;68.89
21504;BME280;10913;51.992;9.228;2022-11-20T11:44:19;99744.97;;;7.56;68.65
21504;BME280;10913;51.992;9.228;2022-11-20T11:47:05;99748.38;;;7.78;68.13
21504;BME280;10913;51.992;9.228;2022-11-20T11:49:33;99732.56;;;7.84;67.06
21504;BME280;10913;51.992;9.228;2022-11-20T11:54:41;99741.38;;;7.71;66.34
21504;BME280;10913;51.992;9.228;2022-11-20T12:00:05;99737.06;;;7.59;66.41
21504;BME280;10913;51.992;9.228;2022-11-20T12:07:54;99742.34;;;7.50;66.68
21504;BME280;10913;51.992;9.228;2022-11-20T12:10:29;99733.56;;;7.51;67.91
21504;BME280;10913;51.992;9.228;2022-11-20T12:13:18;99723.06;;;7.51;68.11
21504;BME280;10913;51.992;9.228;2022-11-20T12:15:46;99725.63;;;7.60;68.26
21504;BME280;10913;51.992;9.228;2022-11-20T12:18:17;99718.59;;;7.70;68.52
21504;BME280;10913;51.992;9.228;2022-11-20T12:21:17;99714.19;;;7.76;67.30
21504;BME280;10913;51.992;9.228;2022-11-20T12:41:19;99687.28;;;7.00;68.55
21504;BME280;10913;51.992;9.228;2022-11-20T12:56:44;99682.13;;;6.27;70.23
21504;BME280;10913;51.992;9.228;2022-11-20T12:59:53;99694.31;;;6.03;70.73
21504;BME280;10913;51.992;9.228;2022-11-20T13:02:27;99684.66;;;5.78;71.89
21504;BME280;10913;51.992;9.228;2022-11-20T13:07:44;99680.13;;;5.34;73.54
21504;BME280;10913;51.992;9.228;2022-11-20T13:10:32;99680.03;;;5.13;74.20
21504;BME280;10913;51.992;9.228;2022-11-20T13:13:10;99680.81;;;5.00;74.45
21504;BME280;10913;51.992;9.228;2022-11-20T13:15:50;99684.19;;;4.83;75.81
21504;BME280;10913;51.992;9.228;2022-11-20T13:18:19;99680.53;;;4.56;76.63
21504;BME280;10913;51.992;9.228;2022-11-20T13:20:46;99682.13;;;4.35;77.63
21504;BME280;10913;51.992;9.228;2022-11-20T13:23:23;99672.38;;;4.21;78.15
21504;BME280;10913;51.992;9.228;2022-11-20T13:25:49;99668.84;;;4.11;78.79
21504;BME280;10913;51.992;9.228;2022-11-20T13:30:53;99673.13;;;4.04;80.12
21504;BME280;10913;51.992;9.228;2022-11-20T13:33:32;99679.19;;;4.00;79.96
21504;BME280;10913;51.992;9.228;2022-11-20T13:36:19;99672.09;;;3.89;80.48
21504;BME280;10913;51.992;9.228;2022-11-20T13:38:50;99660.69;;;3.80;81.00
21504;BME280;10913;51.992;9.228;2022-11-20T13:41:36;99657.16;;;3.74;81.21
21504;BME280;10913;51.992;9.228;2022-11-20T13:46:43;99659.66;;;3.63;81.96
21504;BME280;10913;51.992;9.228;2022-11-20T13:49:33;99648.31;;;3.63;82.33
21504;BME280;10913;51.992;9.228;2022-11-20T14:00:17;99635.19;;;3.54;82.79
21504;BME280;10913;51.992;9.228;2022-11-20T14:02:44;99634.31;;;3.55;82.74
21504;BME280;10913;51.992;9.228;2022-11-20T14:05:19;99639.56;;;3.55;82.83
21504;BME280;10913;51.992;9.228;2022-11-20T14:07:47;99643.00;;;3.52;82.88
21504;BME280;10913;51.992;9.228;2022-11-20T14:10:29;99637.75;;;3.49;83.13
21504;BME280;10913;51.992;9.228;2022-11-20T14:12:54;99638.56;;;3.45;83.12
21504;BME280;10913;51.992;9.228;2022-11-20T14:15:32;99635.00;;;3.40;83.44
21504;BME280;10913;51.992;9.228;2022-11-20T14:17:58;99634.97;;;3.35;83.82
21504;BME280;10913;51.992;9.228;2022-11-20T14:20:27;99620.13;;;3.30;84.18
21504;BME280;10913;51.992;9.228;2022-11-20T14:22:54;99627.88;;;3.24;84.94
21504;BME280;10913;51.992;9.228;2022-11-20T14:25:25;99633.94;;;3.23;84.83
21504;BME280;10913;51.992;9.228;2022-11-20T14:27:58;99625.16;;;3.15;85.35
21504;BME280;10913;51.992;9.228;2022-11-20T14:30:30;99626.84;;;3.09;85.30
21504;BME280;10913;51.992;9.228;2022-11-20T14:33:03;99625.00;;;3.02;85.83
21504;BME280;10913;51.992;9.228;2022-11-20T14:35:34;99615.38;;;2.97;85.92
21504;BME280;10913;51.992;9.228;2022-11-20T14:38:01;99608.31;;;2.88;86.23
21504;BME280;10913;51.992;9.228;2022-11-20T14:40:35;99605.69;;;2.87;86.12
21504;BME280;10913;51.992;9.228;2022-11-20T14:43:02;99617.78;;;2.83;86.42
21504;BME280;10913;51.992;9.228;2022-11-20T14:45:40;99616.91;;;2.81;86.33
21504;BME280;10913;51.992;9.228;2022-11-20T14:48:05;99612.53;;;2.80;86.50
21504;BME280;10913;51.992;9.228;2022-11-20T14:50:31;99607.31;;;2.77;86.71